sensor_id;sensor_type;location;lat;lon;timestamp;P1;durP1;ratioP1;P2;durP2;ratioP2
56746;SDS011;42623;49.978;9.966;2023-05-07T00:10:01;1.58;;;0.90;;
56746;SDS011;42623;49.978;9.966;2023-05-07T00:10:11;1.58;;;0.93;;
56746;SDS011;42623;49.978;9.966;2023-05-07T00:10:22;2.08;;;1.15;;
56746;SDS011;42623;49.978;9.966;2023-05-07T00:10:32;2.87;;;1.43;;
56746;SDS011;42623;49.978;9.966;2023-05-07T00:10:42;3.47;;;1.93;;
56746;SDS011;42623;49.978;9.966;2023-05-07T00:10:52;4.30;;;2.30;;
56746;SDS011;42623;49.978;9.966;2023-05-07T00:11:03;4.37;;;2.43;;
56746;SDS011;42623;49.978;9.966;2023-05-07T00:11:13;4.13;;;2.20;;
56746;SDS011;42623;49.978;9.966;2023-05-07T00:11:23;3.73;;;2.00;;
56746;SDS011;42623;49.978;9.966;2023-05-07T00:11:33;3.43;;;1.80;;
56746;SDS011;42623;49.978;9.966;2023-05-07T00:11:43;4.70;;;2.40;;
56746;SDS011;42623;49.978;9.966;2023-05-07T00:11:54;5.20;;;2.40;;
56746;SDS011;42623;49.978;9.966;2023-05-07T00:12:04;5.50;;;2.50;;
56746;SDS011;42623;49.978;9.966;2023-05-07T00:12:14;4.30;;;1.92;;
56746;SDS011;42623;49.978;9.966;2023-05-07T00:12:24;4.20;;;2.07;;
56746;SDS011;42623;49.978;9.966;2023-05-07T00:12:35;4.07;;;2.00;;
56746;SDS011;42623;49.978;9.966;2023-05-07T00:12:45;4.18;;;2.15;;
56746;SDS011;42623;49.978;9.966;2023-05-07T00:12:55;4.20;;;2.23;;
56746;SDS011;42623;49.978;9.966;2023-05-07T00:13:05;4.50;;;2.37;;
56746;SDS011;42623;49.978;9.966;2023-05-07T00:13:16;4.27;;;2.20;;
56746;SDS011;42623;49.978;9.966;2023-05-07T00:13:26;4.43;;;2.33;;
56746;SDS011;42623;49.978;9.966;2023-05-07T00:13:37;4.22;;;2.15;;
56746;SDS011;42623;49.978;9.966;2023-05-07T00:13:47;4.28;;;2.15;;
56746;SDS011;42623;49.978;9.966;2023-05-07T00:13:57;3.27;;;1.60;;
56746;SDS011;42623;49.978;9.966;2023-05-07T00:14:08;3.67;;;1.77;;
56746;SDS011;42623;49.978;9.966;2023-05-07T00:14:18;3.28;;;1.77;;
56746;SDS011;42623;49.978;9.966;2023-05-07T00:14:28;3.33;;;1.87;;
56746;SDS011;42623;49.978;9.966;2023-05-07T00:14:38;3.50;;;1.83;;
56746;SDS011;42623;49.978;9.966;2023-05-07T00:14:48;3.67;;;1.90;;
56746;SDS011;42623;49.978;9.966;2023-05-07T00:14:59;4.27;;;1.90;;
56746;SDS011;42623;49.978;9.966;2023-05-07T00:15:09;4.50;;;1.95;;
56746;SDS011;42623;49.978;9.966;2023-05-07T00:15:19;4.50;;;2.00;;
56746;SDS011;42623;49.978;9.966;2023-05-07T00:15:30;4.23;;;1.83;;
56746;SDS011;42623;49.978;9.966;2023-05-07T00:15:40;3.60;;;1.90;;
56746;SDS011;42623;49.978;9.966;2023-05-07T00:15:50;4.07;;;1.93;;
56746;SDS011;42623;49.978;9.966;2023-05-07T00:16:03;4.47;;;2.10;;
56746;SDS011;42623;49.978;9.966;2023-05-07T00:16:13;5.55;;;2.55;;
56746;SDS011;42623;49.978;9.966;2023-05-07T00:16:24;4.43;;;2.30;;
56746;SDS011;42623;49.978;9.966;2023-05-07T00:16:34;3.80;;;2.07;;
56746;SDS011;42623;49.978;9.966;2023-05-07T00:16:44;3.17;;;1.80;;
56746;SDS011;42623;49.978;9.966;2023-05-07T00:16:55;3.17;;;1.90;;
56746;SDS011;42623;49.978;9.966;2023-05-07T00:17:05;3.40;;;1.90;;
56746;SDS011;42623;49.978;9.966;2023-05-07T00:17:15;4.32;;;2.15;;
56746;SDS011;42623;49.978;9.966;2023-05-07T00:17:25;4.73;;;2.30;;
56746;SDS011;42623;49.978;9.966;2023-05-07T00:17:35;4.70;;;2.50;;
56746;SDS011;42623;49.978;9.966;2023-05-07T00:17:46;4.00;;;2.37;;
56746;SDS011;42623;49.978;9.966;2023-05-07T00:17:56;4.10;;;2.13;;
56746;SDS011;42623;49.978;9.966;2023-05-07T00:18:08;4.40;;;2.10;;
56746;SDS011;42623;49.978;9.966;2023-05-07T00:18:18;3.93;;;1.90;;
56746;SDS011;42623;49.978;9.966;2023-05-07T00:18:31;3.17;;;1.73;;
56746;SDS011;42623;49.978;9.966;2023-05-07T00:18:41;2.80;;;1.42;;
56746;SDS011;42623;49.978;9.966;2023-05-07T00:18:51;2.97;;;1.60;;
56746;SDS011;42623;49.978;9.966;2023-05-07T00:19:01;3.20;;;1.70;;
56746;SDS011;42623;49.978;9.966;2023-05-07T00:19:12;4.03;;;1.77;;
56746;SDS011;42623;49.978;9.966;2023-05-07T00:19:22;4.00;;;1.53;;
56746;SDS011;42623;49.978;9.966;2023-05-07T00:19:32;4.10;;;1.57;;
56746;SDS011;42623;49.978;9.966;2023-05-07T00:19:42;3.17;;;1.50;;
56746;SDS011;42623;49.978;9.966;2023-05-07T00:19:52;4.50;;;1.83;;
56746;SDS011;42623;49.978;9.966;2023-05-07T00:20:03;5.13;;;2.00;;
56746;SDS011;42623;49.978;9.966;2023-05-07T00:20:13;6.25;;;2.35;;
56746;SDS011;42623;49.978;9.966;2023-05-07T00:20:24;4.70;;;2.17;;
56746;SDS011;42623;49.978;9.966;2023-05-07T00:20:34;4.20;;;2.07;;
56746;SDS011;42623;49.978;9.966;2023-05-07T00:20:44;3.37;;;1.77;;
56746;SDS011;42623;49.978;9.966;2023-05-07T00:20:54;3.47;;;1.80;;
56746;SDS011;42623;49.978;9.966;2023-05-07T00:21:04;3.47;;;1.87;;
56746;SDS011;42623;49.978;9.966;2023-05-07T00:21:15;2.93;;;1.63;;
56746;SDS011;42623;49.978;9.966;2023-05-07T00:21:25;2.87;;;1.53;;
56746;SDS011;42623;49.978;9.966;2023-05-07T00:21:36;8.02;;;2.08;;
56746;SDS011;42623;49.978;9.966;2023-05-07T00:21:46;9.27;;;2.40;;
56746;SDS011;42623;49.978;9.966;2023-05-07T00:21:56;9.77;;;2.30;;
56746;SDS011;42623;49.978;9.966;2023-05-07T00:22:08;4.57;;;1.90;;
56746;SDS011;42623;49.978;9.966;2023-05-07T00:22:18;3.55;;;1.58;;
56746;SDS011;42623;49.978;9.966;2023-05-07T00:22:28;3.57;;;1.73;;
56746;SDS011;42623;49.978;9.966;2023-05-07T00:22:40;3.72;;;1.60;;
56746;SDS011;42623;49.978;9.966;2023-05-07T00:22:50;4.10;;;1.88;;
56746;SDS011;42623;49.978;9.966;2023-05-07T00:23:00;3.40;;;1.63;;
56746;SDS011;42623;49.978;9.966;2023-05-07T00:23:10;3.17;;;1.60;;
56746;SDS011;42623;49.978;9.966;2023-05-07T00:23:20;2.87;;;1.40;;
56746;SDS011;42623;49.978;9.966;2023-05-07T00:23:30;3.03;;;1.60;;
56746;SDS011;42623;49.978;9.966;2023-05-07T00:23:41;3.03;;;1.63;;
56746;SDS011;42623;49.978;9.966;2023-05-07T00:23:51;4.03;;;1.83;;
56746;SDS011;42623;49.978;9.966;2023-05-07T00:24:01;4.60;;;1.70;;
56746;SDS011;42623;49.978;9.966;2023-05-07T00:24:11;4.30;;;1.70;;
56746;SDS011;42623;49.978;9.966;2023-05-07T00:24:21;3.10;;;1.40;;
56746;SDS011;42623;49.978;9.966;2023-05-07T00:24:31;3.00;;;1.60;;
56746;SDS011;42623;49.978;9.966;2023-05-07T00:24:41;3.40;;;1.67;;
56746;SDS011;42623;49.978;9.966;2023-05-07T00:24:52;4.23;;;1.90;;
56746;SDS011;42623;49.978;9.966;2023-05-07T00:25:02;3.77;;;1.70;;
56746;SDS011;42623;49.978;9.966;2023-05-07T00:25:12;3.35;;;1.58;;
56746;SDS011;42623;49.978;9.966;2023-05-07T00:25:23;2.50;;;1.37;;
56746;SDS011;42623;49.978;9.966;2023-05-07T00:25:33;2.43;;;1.40;;
56746;SDS011;42623;49.978;9.966;2023-05-07T00:25:43;3.70;;;1.67;;
56746;SDS011;42623;49.978;9.966;2023-05-07T00:25:53;4.20;;;1.90;;
56746;SDS011;42623;49.978;9.966;2023-05-07T00:26:03;4.17;;;2.10;;
56746;SDS011;42623;49.978;9.966;2023-05-07T00:26:14;4.03;;;2.10;;
56746;SDS011;42623;49.978;9.966;2023-05-07T00:26:24;3.80;;;1.93;;
56746;SDS011;42623;49.978;9.966;2023-05-07T00:26:34;3.63;;;1.60;;
56746;SDS011;42623;49.978;9.966;2023-05-07T00:26:44;3.53;;;1.60;;
56746;SDS011;42623;49.978;9.966;2023-05-07T00:26:54;3.47;;;1.53;;
56746;SDS011;42623;49.978;9.966;2023-05-07T00:27:05;3.70;;;1.53;;
56746;SDS011;42623;49.978;9.966;2023-05-07T00:27:15;3.85;;;1.75;;
56746;SDS011;42623;49.978;9.966;2023-05-07T00:27:25;4.60;;;2.00;;
56746;SDS011;42623;49.978;9.966;2023-05-07T00:27:35;4.53;;;2.03;;
56746;SDS011;42623;49.978;9.966;2023-05-07T00:27:46;4.70;;;2.30;;
56746;SDS011;42623;49.978;9.966;2023-05-07T00:27:56;4.53;;;2.17;;
56746;SDS011;42623;49.978;9.966;2023-05-07T00:28:07;4.72;;;2.10;;
56746;SDS011;42623;49.978;9.966;2023-05-07T00:28:17;3.60;;;1.60;;
56746;SDS011;42623;49.978;9.966;2023-05-07T00:28:27;3.17;;;1.53;;
56746;SDS011;42623;49.978;9.966;2023-05-07T00:28:37;2.67;;;1.30;;
56746;SDS011;42623;49.978;9.966;2023-05-07T00:28:48;2.90;;;1.43;;
56746;SDS011;42623;49.978;9.966;2023-05-07T00:28:58;2.97;;;1.50;;
56746;SDS011;42623;49.978;9.966;2023-05-07T00:29:08;2.93;;;1.57;;
56746;SDS011;42623;49.978;9.966;2023-05-07T00:29:18;2.57;;;1.50;;
56746;SDS011;42623;49.978;9.966;2023-05-07T00:29:28;2.57;;;1.47;;
56746;SDS011;42623;49.978;9.966;2023-05-07T00:29:38;2.90;;;1.53;;
56746;SDS011;42623;49.978;9.966;2023-05-07T00:29:49;2.90;;;1.43;;
56746;SDS011;42623;49.978;9.966;2023-05-07T00:29:59;2.93;;;1.57;;
56746;SDS011;42623;49.978;9.966;2023-05-07T00:30:09;3.10;;;1.50;;
56746;SDS011;42623;49.978;9.966;2023-05-07T00:30:20;3.53;;;1.60;;
56746;SDS011;42623;49.978;9.966;2023-05-07T00:30:30;3.73;;;1.40;;
56746;SDS011;42623;49.978;9.966;2023-05-07T00:30:40;3.78;;;1.70;;
56746;SDS011;42623;49.978;9.966;2023-05-07T00:30:50;3.43;;;1.60;;
56746;SDS011;42623;49.978;9.966;2023-05-07T00:31:00;2.87;;;1.60;;
56746;SDS011;42623;49.978;9.966;2023-05-07T00:31:10;2.77;;;1.40;;
56746;SDS011;42623;49.978;9.966;2023-05-07T00:31:21;2.63;;;1.37;;
56746;SDS011;42623;49.978;9.966;2023-05-07T00:31:31;3.83;;;1.50;;
56746;SDS011;42623;49.978;9.966;2023-05-07T00:31:41;3.55;;;1.52;;
56746;SDS011;42623;49.978;9.966;2023-05-07T00:31:51;4.27;;;1.60;;
56746;SDS011;42623;49.978;9.966;2023-05-07T00:32:03;4.28;;;1.73;;
56746;SDS011;42623;49.978;9.966;2023-05-07T00:32:14;3.90;;;1.70;;
56746;SDS011;42623;49.978;9.966;2023-05-07T00:32:24;3.72;;;1.90;;
56746;SDS011;42623;49.978;9.966;2023-05-07T00:32:34;3.10;;;1.67;;
56746;SDS011;42623;49.978;9.966;2023-05-07T00:32:44;3.13;;;1.67;;
56746;SDS011;42623;49.978;9.966;2023-05-07T00:32:55;2.35;;;1.40;;
56746;SDS011;42623;49.978;9.966;2023-05-07T00:33:05;3.20;;;1.47;;
56746;SDS011;42623;49.978;9.966;2023-05-07T00:33:15;3.27;;;1.47;;
56746;SDS011;42623;49.978;9.966;2023-05-07T00:33:25;3.65;;;1.63;;
56746;SDS011;42623;49.978;9.966;2023-05-07T00:33:37;3.42;;;1.85;;
56746;SDS011;42623;49.978;9.966;2023-05-07T00:33:47;3.60;;;1.90;;
56746;SDS011;42623;49.978;9.966;2023-05-07T00:33:57;2.75;;;1.58;;
56746;SDS011;42623;49.978;9.966;2023-05-07T00:34:08;2.30;;;1.20;;
56746;SDS011;42623;49.978;9.966;2023-05-07T00:34:18;2.80;;;1.33;;
56746;SDS011;42623;49.978;9.966;2023-05-07T00:34:28;3.50;;;1.67;;
56746;SDS011;42623;49.978;9.966;2023-05-07T00:34:38;3.55;;;1.70;;
56746;SDS011;42623;49.978;9.966;2023-05-07T00:34:49;4.00;;;1.80;;
56746;SDS011;42623;49.978;9.966;2023-05-07T00:35:00;4.00;;;1.80;;
56746;SDS011;42623;49.978;9.966;2023-05-07T00:35:11;3.70;;;1.90;;
56746;SDS011;42623;49.978;9.966;2023-05-07T00:35:21;3.50;;;1.73;;
56746;SDS011;42623;49.978;9.966;2023-05-07T00:35:31;2.95;;;1.50;;
56746;SDS011;42623;49.978;9.966;2023-05-07T00:35:42;3.30;;;1.50;;
56746;SDS011;42623;49.978;9.966;2023-05-07T00:35:52;4.20;;;1.87;;
56746;SDS011;42623;49.978;9.966;2023-05-07T00:36:02;4.88;;;2.20;;
56746;SDS011;42623;49.978;9.966;2023-05-07T00:36:12;4.10;;;1.87;;
56746;SDS011;42623;49.978;9.966;2023-05-07T00:36:22;3.10;;;1.60;;
56746;SDS011;42623;49.978;9.966;2023-05-07T00:36:32;4.53;;;1.83;;
56746;SDS011;42623;49.978;9.966;2023-05-07T00:36:43;5.03;;;2.10;;
56746;SDS011;42623;49.978;9.966;2023-05-07T00:36:53;6.55;;;2.70;;
56746;SDS011;42623;49.978;9.966;2023-05-07T00:37:03;5.37;;;2.47;;
56746;SDS011;42623;49.978;9.966;2023-05-07T00:37:13;5.27;;;2.30;;
56746;SDS011;42623;49.978;9.966;2023-05-07T00:37:23;4.03;;;1.90;;
56746;SDS011;42623;49.978;9.966;2023-05-07T00:37:33;3.40;;;1.80;;
56746;SDS011;42623;49.978;9.966;2023-05-07T00:37:43;4.07;;;1.75;;
56746;SDS011;42623;49.978;9.966;2023-05-07T00:37:54;4.33;;;1.80;;
56746;SDS011;42623;49.978;9.966;2023-05-07T00:38:05;4.55;;;1.85;;
56746;SDS011;42623;49.978;9.966;2023-05-07T00:38:15;4.07;;;2.03;;
56746;SDS011;42623;49.978;9.966;2023-05-07T00:38:25;3.53;;;1.80;;
56746;SDS011;42623;49.978;9.966;2023-05-07T00:38:35;3.93;;;1.97;;
56746;SDS011;42623;49.978;9.966;2023-05-07T00:38:45;3.67;;;1.63;;
56746;SDS011;42623;49.978;9.966;2023-05-07T00:38:56;3.45;;;1.58;;
56746;SDS011;42623;49.978;9.966;2023-05-07T00:39:06;3.28;;;1.48;;
56746;SDS011;42623;49.978;9.966;2023-05-07T00:39:16;3.43;;;1.63;;
56746;SDS011;42623;49.978;9.966;2023-05-07T00:39:27;3.50;;;1.73;;
56746;SDS011;42623;49.978;9.966;2023-05-07T00:39:37;2.90;;;1.50;;
56746;SDS011;42623;49.978;9.966;2023-05-07T00:39:47;2.70;;;1.50;;
56746;SDS011;42623;49.978;9.966;2023-05-07T00:39:57;2.65;;;1.38;;
56746;SDS011;42623;49.978;9.966;2023-05-07T00:40:07;2.93;;;1.47;;
56746;SDS011;42623;49.978;9.966;2023-05-07T00:40:18;3.03;;;1.50;;
56746;SDS011;42623;49.978;9.966;2023-05-07T00:40:28;3.28;;;1.60;;
56746;SDS011;42623;49.978;9.966;2023-05-07T00:40:38;3.23;;;1.60;;
56746;SDS011;42623;49.978;9.966;2023-05-07T00:40:48;3.47;;;1.67;;
56746;SDS011;42623;49.978;9.966;2023-05-07T00:40:58;3.53;;;1.87;;
56746;SDS011;42623;49.978;9.966;2023-05-07T00:41:09;3.50;;;1.87;;
56746;SDS011;42623;49.978;9.966;2023-05-07T00:41:19;3.17;;;1.95;;
56746;SDS011;42623;49.978;9.966;2023-05-07T00:41:30;2.93;;;1.77;;
56746;SDS011;42623;49.978;9.966;2023-05-07T00:41:42;3.22;;;1.80;;
56746;SDS011;42623;49.978;9.966;2023-05-07T00:41:53;3.30;;;1.60;;
56746;SDS011;42623;49.978;9.966;2023-05-07T00:42:03;3.83;;;1.70;;
56746;SDS011;42623;49.978;9.966;2023-05-07T00:42:13;3.97;;;1.77;;
56746;SDS011;42623;49.978;9.966;2023-05-07T00:42:24;3.83;;;1.80;;
56746;SDS011;42623;49.978;9.966;2023-05-07T00:42:35;3.30;;;1.90;;
56746;SDS011;42623;49.978;9.966;2023-05-07T00:42:45;2.73;;;1.70;;
56746;SDS011;42623;49.978;9.966;2023-05-07T00:42:56;2.80;;;1.55;;
56746;SDS011;42623;49.978;9.966;2023-05-07T00:43:07;3.72;;;1.73;;
56746;SDS011;42623;49.978;9.966;2023-05-07T00:43:18;4.10;;;1.90;;
56746;SDS011;42623;49.978;9.966;2023-05-07T00:43:28;3.60;;;1.77;;
56746;SDS011;42623;49.978;9.966;2023-05-07T00:43:39;3.40;;;1.70;;
56746;SDS011;42623;49.978;9.966;2023-05-07T00:43:49;3.13;;;1.60;;
56746;SDS011;42623;49.978;9.966;2023-05-07T00:44:01;3.42;;;1.80;;
56746;SDS011;42623;49.978;9.966;2023-05-07T00:44:12;4.00;;;2.05;;
56746;SDS011;42623;49.978;9.966;2023-05-07T00:44:22;4.28;;;2.00;;
56746;SDS011;42623;49.978;9.966;2023-05-07T00:44:33;4.03;;;1.97;;
56746;SDS011;42623;49.978;9.966;2023-05-07T00:44:43;3.30;;;1.75;;
56746;SDS011;42623;49.978;9.966;2023-05-07T00:44:53;3.30;;;1.70;;
56746;SDS011;42623;49.978;9.966;2023-05-07T00:45:03;3.57;;;1.70;;
56746;SDS011;42623;49.978;9.966;2023-05-07T00:45:14;3.47;;;1.67;;
56746;SDS011;42623;49.978;9.966;2023-05-07T00:45:27;3.58;;;1.83;;
56746;SDS011;42623;49.978;9.966;2023-05-07T00:45:38;3.25;;;1.70;;
56746;SDS011;42623;49.978;9.966;2023-05-07T00:45:48;3.78;;;1.67;;
56746;SDS011;42623;49.978;9.966;2023-05-07T00:45:58;3.50;;;1.70;;
56746;SDS011;42623;49.978;9.966;2023-05-07T00:46:08;3.37;;;1.63;;
56746;SDS011;42623;49.978;9.966;2023-05-07T00:46:20;2.70;;;1.58;;
56746;SDS011;42623;49.978;9.966;2023-05-07T00:46:30;3.72;;;1.77;;
56746;SDS011;42623;49.978;9.966;2023-05-07T00:46:40;3.80;;;2.00;;
56746;SDS011;42623;49.978;9.966;2023-05-07T00:46:51;3.92;;;2.10;;
56746;SDS011;42623;49.978;9.966;2023-05-07T00:47:01;3.07;;;1.90;;
56746;SDS011;42623;49.978;9.966;2023-05-07T00:47:11;2.92;;;1.80;;
56746;SDS011;42623;49.978;9.966;2023-05-07T00:47:22;2.67;;;1.67;;
56746;SDS011;42623;49.978;9.966;2023-05-07T00:47:33;2.73;;;1.80;;
56746;SDS011;42623;49.978;9.966;2023-05-07T00:47:43;2.57;;;1.70;;
56746;SDS011;42623;49.978;9.966;2023-05-07T00:47:54;3.37;;;1.90;;
56746;SDS011;42623;49.978;9.966;2023-05-07T00:48:04;3.60;;;1.87;;
56746;SDS011;42623;49.978;9.966;2023-05-07T00:48:15;3.80;;;1.88;;
56746;SDS011;42623;49.978;9.966;2023-05-07T00:48:25;3.70;;;1.80;;
56746;SDS011;42623;49.978;9.966;2023-05-07T00:48:35;3.45;;;1.73;;
56746;SDS011;42623;49.978;9.966;2023-05-07T00:48:45;3.50;;;1.67;;
56746;SDS011;42623;49.978;9.966;2023-05-07T00:48:56;3.30;;;1.53;;
56746;SDS011;42623;49.978;9.966;2023-05-07T00:49:06;4.07;;;1.80;;
56746;SDS011;42623;49.978;9.966;2023-05-07T00:49:16;3.77;;;1.83;;
56746;SDS011;42623;49.978;9.966;2023-05-07T00:49:33;3.92;;;2.00;;
56746;SDS011;42623;49.978;9.966;2023-05-07T00:49:45;3.35;;;1.75;;
56746;SDS011;42623;49.978;9.966;2023-05-07T00:49:55;3.60;;;1.73;;
56746;SDS011;42623;49.978;9.966;2023-05-07T00:50:07;3.75;;;1.75;;
56746;SDS011;42623;49.978;9.966;2023-05-07T00:50:17;4.05;;;1.88;;
56746;SDS011;42623;49.978;9.966;2023-05-07T00:50:29;4.03;;;1.95;;
56746;SDS011;42623;49.978;9.966;2023-05-07T00:50:39;3.33;;;1.90;;
56746;SDS011;42623;49.978;9.966;2023-05-07T00:50:49;2.60;;;1.67;;
56746;SDS011;42623;49.978;9.966;2023-05-07T00:51:00;2.45;;;1.42;;
56746;SDS011;42623;49.978;9.966;2023-05-07T00:51:10;2.87;;;1.47;;
56746;SDS011;42623;49.978;9.966;2023-05-07T00:51:21;3.05;;;1.70;;
56746;SDS011;42623;49.978;9.966;2023-05-07T00:51:31;2.80;;;1.70;;
56746;SDS011;42623;49.978;9.966;2023-05-07T00:51:41;2.60;;;1.60;;
56746;SDS011;42623;49.978;9.966;2023-05-07T00:51:52;3.25;;;1.70;;
56746;SDS011;42623;49.978;9.966;2023-05-07T00:52:02;3.73;;;1.80;;
56746;SDS011;42623;49.978;9.966;2023-05-07T00:52:16;3.93;;;1.83;;
56746;SDS011;42623;49.978;9.966;2023-05-07T00:52:26;4.13;;;1.88;;
56746;SDS011;42623;49.978;9.966;2023-05-07T00:52:38;3.95;;;1.67;;
56746;SDS011;42623;49.978;9.966;2023-05-07T00:52:48;3.10;;;1.40;;
56746;SDS011;42623;49.978;9.966;2023-05-07T00:52:59;3.43;;;1.60;;
56746;SDS011;42623;49.978;9.966;2023-05-07T00:53:09;3.22;;;1.60;;
56746;SDS011;42623;49.978;9.966;2023-05-07T00:53:20;3.60;;;1.80;;
56746;SDS011;42623;49.978;9.966;2023-05-07T00:53:30;3.30;;;1.60;;
56746;SDS011;42623;49.978;9.966;2023-05-07T00:53:40;3.60;;;1.90;;
56746;SDS011;42623;49.978;9.966;2023-05-07T00:53:50;3.40;;;1.83;;
56746;SDS011;42623;49.978;9.966;2023-05-07T00:54:02;3.47;;;1.90;;
56746;SDS011;42623;49.978;9.966;2023-05-07T00:54:12;3.14;;;1.56;;
56746;SDS011;42623;49.978;9.966;2023-05-07T00:54:23;3.17;;;1.60;;
56746;SDS011;42623;49.978;9.966;2023-05-07T00:54:33;3.13;;;1.53;;
56746;SDS011;42623;49.978;9.966;2023-05-07T00:54:44;3.15;;;1.52;;
56746;SDS011;42623;49.978;9.966;2023-05-07T00:54:54;3.45;;;1.65;;
56746;SDS011;42623;49.978;9.966;2023-05-07T00:55:06;3.60;;;1.80;;
56746;SDS011;42623;49.978;9.966;2023-05-07T00:55:16;3.97;;;1.95;;
56746;SDS011;42623;49.978;9.966;2023-05-07T00:55:27;4.20;;;2.03;;
56746;SDS011;42623;49.978;9.966;2023-05-07T00:55:37;3.78;;;1.83;;
56746;SDS011;42623;49.978;9.966;2023-05-07T00:55:47;3.23;;;1.67;;
56746;SDS011;42623;49.978;9.966;2023-05-07T00:55:58;3.58;;;1.65;;
56746;SDS011;42623;49.978;9.966;2023-05-07T00:56:08;4.10;;;1.83;;
56746;SDS011;42623;49.978;9.966;2023-05-07T00:56:20;4.40;;;2.10;;
56746;SDS011;42623;49.978;9.966;2023-05-07T00:56:31;3.40;;;1.88;;
56746;SDS011;42623;49.978;9.966;2023-05-07T00:56:41;3.23;;;1.73;;
56746;SDS011;42623;49.978;9.966;2023-05-07T00:56:51;2.85;;;1.45;;
56746;SDS011;42623;49.978;9.966;2023-05-07T00:57:02;3.83;;;1.60;;
56746;SDS011;42623;49.978;9.966;2023-05-07T00:57:13;4.18;;;1.85;;
56746;SDS011;42623;49.978;9.966;2023-05-07T00:57:23;4.53;;;2.00;;
56746;SDS011;42623;49.978;9.966;2023-05-07T00:57:36;4.25;;;2.20;;
56746;SDS011;42623;49.978;9.966;2023-05-07T00:57:47;3.90;;;2.00;;
56746;SDS011;42623;49.978;9.966;2023-05-07T00:57:57;2.97;;;1.63;;
56746;SDS011;42623;49.978;9.966;2023-05-07T00:58:07;2.83;;;1.52;;
56746;SDS011;42623;49.978;9.966;2023-05-07T00:58:18;2.80;;;1.43;;
56746;SDS011;42623;49.978;9.966;2023-05-07T00:58:28;3.55;;;1.80;;
56746;SDS011;42623;49.978;9.966;2023-05-07T00:58:39;3.90;;;1.97;;
56746;SDS011;42623;49.978;9.966;2023-05-07T00:58:50;3.67;;;1.95;;
56746;SDS011;42623;49.978;9.966;2023-05-07T00:59:01;3.30;;;1.97;;
56746;SDS011;42623;49.978;9.966;2023-05-07T00:59:11;3.35;;;2.05;;
56746;SDS011;42623;49.978;9.966;2023-05-07T00:59:21;3.60;;;2.10;;
56746;SDS011;42623;49.978;9.966;2023-05-07T00:59:32;3.53;;;2.07;;
56746;SDS011;42623;49.978;9.966;2023-05-07T00:59:42;4.13;;;2.17;;
56746;SDS011;42623;49.978;9.966;2023-05-07T00:59:52;4.63;;;2.20;;
56746;SDS011;42623;49.978;9.966;2023-05-07T01:00:03;4.87;;;2.17;;
56746;SDS011;42623;49.978;9.966;2023-05-07T01:00:14;4.60;;;2.15;;
56746;SDS011;42623;49.978;9.966;2023-05-07T01:00:24;3.70;;;1.87;;
56746;SDS011;42623;49.978;9.966;2023-05-07T01:00:35;3.25;;;1.67;;
56746;SDS011;42623;49.978;9.966;2023-05-07T01:00:45;2.73;;;1.57;;
56746;SDS011;42623;49.978;9.966;2023-05-07T01:00:56;3.30;;;1.77;;
56746;SDS011;42623;49.978;9.966;2023-05-07T01:01:06;3.40;;;1.90;;
56746;SDS011;42623;49.978;9.966;2023-05-07T01:01:16;4.33;;;2.10;;
56746;SDS011;42623;49.978;9.966;2023-05-07T01:01:26;3.87;;;2.07;;
56746;SDS011;42623;49.978;9.966;2023-05-07T01:01:36;3.65;;;1.92;;
56746;SDS011;42623;49.978;9.966;2023-05-07T01:01:47;2.97;;;1.80;;
56746;SDS011;42623;49.978;9.966;2023-05-07T01:01:57;3.43;;;1.70;;
56746;SDS011;42623;49.978;9.966;2023-05-07T01:02:07;4.20;;;1.90;;
56746;SDS011;42623;49.978;9.966;2023-05-07T01:02:18;4.87;;;2.00;;
56746;SDS011;42623;49.978;9.966;2023-05-07T01:02:28;4.37;;;2.03;;
56746;SDS011;42623;49.978;9.966;2023-05-07T01:02:39;4.37;;;2.07;;
56746;SDS011;42623;49.978;9.966;2023-05-07T01:02:52;4.15;;;2.15;;
56746;SDS011;42623;49.978;9.966;2023-05-07T01:03:02;4.35;;;2.17;;
56746;SDS011;42623;49.978;9.966;2023-05-07T01:03:13;3.70;;;1.90;;
56746;SDS011;42623;49.978;9.966;2023-05-07T01:03:23;3.43;;;1.70;;
56746;SDS011;42623;49.978;9.966;2023-05-07T01:03:33;3.35;;;1.58;;
56746;SDS011;42623;49.978;9.966;2023-05-07T01:03:43;4.43;;;1.97;;
56746;SDS011;42623;49.978;9.966;2023-05-07T01:03:54;4.43;;;2.23;;
56746;SDS011;42623;49.978;9.966;2023-05-07T01:04:04;4.93;;;2.33;;
56746;SDS011;42623;49.978;9.966;2023-05-07T01:04:15;4.57;;;2.13;;
56746;SDS011;42623;49.978;9.966;2023-05-07T01:04:25;4.90;;;2.05;;
56746;SDS011;42623;49.978;9.966;2023-05-07T01:04:35;4.50;;;2.03;;
56746;SDS011;42623;49.978;9.966;2023-05-07T01:04:46;4.45;;;2.05;;
56746;SDS011;42623;49.978;9.966;2023-05-07T01:04:56;3.87;;;1.80;;
56746;SDS011;42623;49.978;9.966;2023-05-07T01:05:07;3.00;;;1.60;;
56746;SDS011;42623;49.978;9.966;2023-05-07T01:05:19;2.97;;;1.60;;
56746;SDS011;42623;49.978;9.966;2023-05-07T01:05:30;3.22;;;1.63;;
56746;SDS011;42623;49.978;9.966;2023-05-07T01:05:40;3.50;;;1.60;;
56746;SDS011;42623;49.978;9.966;2023-05-07T01:05:51;3.00;;;1.50;;
56746;SDS011;42623;49.978;9.966;2023-05-07T01:06:03;2.95;;;1.48;;
56746;SDS011;42623;49.978;9.966;2023-05-07T01:06:13;2.90;;;1.40;;
56746;SDS011;42623;49.978;9.966;2023-05-07T01:06:26;3.75;;;1.60;;
56746;SDS011;42623;49.978;9.966;2023-05-07T01:06:37;3.88;;;1.70;;
56746;SDS011;42623;49.978;9.966;2023-05-07T01:06:47;3.65;;;1.65;;
56746;SDS011;42623;49.978;9.966;2023-05-07T01:06:58;3.28;;;1.75;;
56746;SDS011;42623;49.978;9.966;2023-05-07T01:07:09;3.10;;;1.70;;
56746;SDS011;42623;49.978;9.966;2023-05-07T01:07:19;3.33;;;1.70;;
56746;SDS011;42623;49.978;9.966;2023-05-07T01:07:29;3.33;;;1.60;;
56746;SDS011;42623;49.978;9.966;2023-05-07T01:07:40;3.17;;;1.57;;
56746;SDS011;42623;49.978;9.966;2023-05-07T01:07:51;3.95;;;1.80;;
56746;SDS011;42623;49.978;9.966;2023-05-07T01:08:03;3.90;;;1.80;;
56746;SDS011;42623;49.978;9.966;2023-05-07T01:08:14;4.07;;;1.92;;
56746;SDS011;42623;49.978;9.966;2023-05-07T01:08:24;3.55;;;1.75;;
56746;SDS011;42623;49.978;9.966;2023-05-07T01:08:36;3.42;;;1.70;;
56746;SDS011;42623;49.978;9.966;2023-05-07T01:08:49;2.72;;;1.52;;
56746;SDS011;42623;49.978;9.966;2023-05-07T01:09:00;2.35;;;1.23;;
56746;SDS011;42623;49.978;9.966;2023-05-07T01:09:11;2.90;;;1.40;;
56746;SDS011;42623;49.978;9.966;2023-05-07T01:09:22;3.60;;;1.70;;
56746;SDS011;42623;49.978;9.966;2023-05-07T01:09:32;4.15;;;1.85;;
56746;SDS011;42623;49.978;9.966;2023-05-07T01:09:45;4.05;;;1.80;;
56746;SDS011;42623;49.978;9.966;2023-05-07T01:09:55;3.80;;;1.77;;
56746;SDS011;42623;49.978;9.966;2023-05-07T01:10:05;2.93;;;1.50;;
56746;SDS011;42623;49.978;9.966;2023-05-07T01:10:16;3.05;;;1.58;;
56746;SDS011;42623;49.978;9.966;2023-05-07T01:10:27;3.30;;;1.67;;
56746;SDS011;42623;49.978;9.966;2023-05-07T01:10:37;3.97;;;1.90;;
56746;SDS011;42623;49.978;9.966;2023-05-07T01:10:52;4.05;;;1.92;;
56746;SDS011;42623;49.978;9.966;2023-05-07T01:11:02;3.55;;;1.70;;
56746;SDS011;42623;49.978;9.966;2023-05-07T01:11:13;3.20;;;1.73;;
56746;SDS011;42623;49.978;9.966;2023-05-07T01:11:24;3.47;;;1.83;;
56746;SDS011;42623;49.978;9.966;2023-05-07T01:11:35;3.42;;;1.80;;
56746;SDS011;42623;49.978;9.966;2023-05-07T01:11:45;3.30;;;1.70;;
56746;SDS011;42623;49.978;9.966;2023-05-07T01:11:56;2.83;;;1.50;;
56746;SDS011;42623;49.978;9.966;2023-05-07T01:12:07;3.13;;;1.73;;
56746;SDS011;42623;49.978;9.966;2023-05-07T01:12:18;3.38;;;1.80;;
56746;SDS011;42623;49.978;9.966;2023-05-07T01:12:29;3.17;;;1.70;;
56746;SDS011;42623;49.978;9.966;2023-05-07T01:12:40;2.58;;;1.50;;
56746;SDS011;42623;49.978;9.966;2023-05-07T01:12:51;2.13;;;1.35;;
56746;SDS011;42623;49.978;9.966;2023-05-07T01:13:01;2.40;;;1.58;;
56746;SDS011;42623;49.978;9.966;2023-05-07T01:13:12;2.90;;;1.90;;
56746;SDS011;42623;49.978;9.966;2023-05-07T01:13:22;3.58;;;1.98;;